sensor_id;sensor_type;location;lat;lon;timestamp;pressure;altitude;pressure_sealevel;temperature;humidity
46199;BME280;31928;52.104;10.030;2022-12-07T00:01:28;100396.28;;;7.43;58.90
46199;BME280;31928;52.104;10.030;2022-12-07T00:03:55;100388.09;;;7.44;58.95
46199;BME280;31928;52.104;10.030;2022-12-07T00:06:31;100387.09;;;7.45;58.92
46199;BME280;31928;52.104;10.030;2022-12-07T00:08:58;100377.03;;;7.47;58.93
46199;BME280;31928;52.104;10.030;2022-12-07T00:11:25;100373.34;;;7.48;59.29
46199;BME280;31928;52.104;10.030;2022-12-07T00:13:55;100364.34;;;7.49;59.26
46199;BME280;31928;52.104;10.030;2022-12-07T00:16:23;100363.13;;;7.52;59.23
46199;BME280;31928;52.104;10.030;2022-12-07T00:18:50;100365.59;;;7.53;59.03
46199;BME280;31928;52.104;10.030;2022-12-07T00:21:20;100363.53;;;7.55;58.93
46199;BME280;31928;52.104;10.030;2022-12-07T00:23:48;100366.03;;;7.57;58.91
46199;BME280;31928;52.104;10.030;2022-12-07T00:26:18;100367.66;;;7.58;59.29
46199;BME280;31928;52.104;10.030;2022-12-07T00:28:46;100365.44;;;7.61;59.32
46199;BME280;31928;52.104;10.030;2022-12-07T00:31:13;100364.44;;;7.62;59.22
46199;BME280;31928;52.104;10.030;2022-12-07T00:33:40;100356.22;;;7.64;59.17
46199;BME280;31928;52.104;10.030;2022-12-07T00:36:08;100361.38;;;7.65;58.96
46199;BME280;31928;52.104;10.030;2022-12-07T00:38:35;100357.69;;;7.66;59.02
46199;BME280;31928;52.104;10.030;2022-12-07T00:41:04;100361.16;;;7.67;59.21
46199;BME280;31928;52.104;10.030;2022-12-07T00:43:31;100359.16;;;7.69;59.09
46199;BME280;31928;52.104;10.030;2022-12-07T00:45:57;100354.63;;;7.69;58.96
46199;BME280;31928;52.104;10.030;2022-12-07T00:48:24;100354.41;;;7.71;59.03
46199;BME280;31928;52.104;10.030;2022-12-07T00:50:51;100351.59;;;7.72;59.25
46199;BME280;31928;52.104;10.030;2022-12-07T00:53:18;100346.88;;;7.74;59.15
46199;BME280;31928;52.104;10.030;2022-12-07T00:55:45;100337.84;;;7.75;58.98
46199;BME280;31928;52.104;10.030;2022-12-07T00:58:12;100334.16;;;7.76;59.02
46199;BME280;31928;52.104;10.030;2022-12-07T01:00:39;100329.44;;;7.78;59.09
46199;BME280;31928;52.104;10.030;2022-12-07T01:03:07;100326.41;;;7.81;59.34
46199;BME280;31928;52.104;10.030;2022-12-07T01:05:34;100334.41;;;7.81;59.32
46199;BME280;31928;52.104;10.030;2022-12-07T01:08:01;100337.69;;;7.83;59.18
46199;BME280;31928;52.104;10.030;2022-12-07T01:10:27;100326.00;;;7.84;59.44
46199;BME280;31928;52.104;10.030;2022-12-07T01:12:54;100329.28;;;7.86;59.26
46199;BME280;31928;52.104;10.030;2022-12-07T01:15:21;100318.59;;;7.86;59.68
46199;BME280;31928;52.104;10.030;2022-12-07T01:17:47;100320.06;;;7.88;59.58
46199;BME280;31928;52.104;10.030;2022-12-07T01:20:14;100315.56;;;7.89;59.88
46199;BME280;31928;52.104;10.030;2022-12-07T01:22:42;100323.38;;;7.90;59.67
46199;BME280;31928;52.104;10.030;2022-12-07T01:25:10;100324.81;;;7.93;59.26
46199;BME280;31928;52.104;10.030;2022-12-07T01:27:37;100321.94;;;7.94;59.36
46199;BME280;31928;52.104;10.030;2022-12-07T01:30:05;100324.81;;;7.93;59.89
46199;BME280;31928;52.104;10.030;2022-12-07T01:32:32;100318.25;;;7.95;59.80
46199;BME280;31928;52.104;10.030;2022-12-07T01:34:59;100315.41;;;7.97;59.45
46199;BME280;31928;52.104;10.030;2022-12-07T01:37:26;100318.69;;;7.99;59.70
46199;BME280;31928;52.104;10.030;2022-12-07T01:39:52;100314.78;;;8.01;59.48
46199;BME280;31928;52.104;10.030;2022-12-07T01:42:19;100306.78;;;8.01;59.60
46199;BME280;31928;52.104;10.030;2022-12-07T01:47:32;100311.75;;;8.04;59.52
46199;BME280;31928;52.104;10.030;2022-12-07T01:49:59;100307.22;;;8.05;59.73
46199;BME280;31928;52.104;10.030;2022-12-07T01:52:27;100298.19;;;8.06;59.54
46199;BME280;31928;52.104;10.030;2022-12-07T01:54:58;100305.19;;;8.07;59.54
46199;BME280;31928;52.104;10.030;2022-12-07T01:57:25;100299.00;;;8.06;59.65
46199;BME280;31928;52.104;10.030;2022-12-07T01:59:52;100291.44;;;8.10;59.72
46199;BME280;31928;52.104;10.030;2022-12-07T02:02:25;100300.66;;;8.07;60.06
46199;BME280;31928;52.104;10.030;2022-12-07T02:04:53;100290.41;;;8.11;60.13
46199;BME280;31928;52.104;10.030;2022-12-07T02:07:20;100290.41;;;8.11;59.71
46199;BME280;31928;52.104;10.030;2022-12-07T02:09:47;100291.03;;;8.13;60.13
46199;BME280;31928;52.104;10.030;2022-12-07T02:12:14;100288.19;;;8.14;59.96
46199;BME280;31928;52.104;10.030;2022-12-07T02:14:41;100290.03;;;8.14;59.81
46199;BME280;31928;52.104;10.030;2022-12-07T02:17:11;100282.66;;;8.16;60.05
46199;BME280;31928;52.104;10.030;2022-12-07T02:22:38;100278.13;;;8.16;59.90
46199;BME280;31928;52.104;10.030;2022-12-07T02:27:46;100276.91;;;8.19;59.59
46199;BME280;31928;52.104;10.030;2022-12-07T02:30:14;100278.56;;;8.20;59.46
46199;BME280;31928;52.104;10.030;2022-12-07T02:32:48;100280.22;;;8.21;59.56
46199;BME280;31928;52.104;10.030;2022-12-07T02:35:18;100265.84;;;8.22;59.34
46199;BME280;31928;52.104;10.030;2022-12-07T02:43:41;100268.94;;;8.25;59.43
46199;BME280;31928;52.104;10.030;2022-12-07T02:45:47;100263.38;;;8.27;59.60
46199;BME280;31928;52.104;10.030;2022-12-07T02:48:14;100264.03;;;8.29;59.41
46199;BME280;31928;52.104;10.030;2022-12-07T02:50:48;100270.38;;;8.28;59.71
46199;BME280;31928;52.104;10.030;2022-12-07T02:55:56;100268.31;;;8.30;59.45
46199;BME280;31928;52.104;10.030;2022-12-07T02:58:32;100260.31;;;8.30;59.81
46199;BME280;31928;52.104;10.030;2022-12-07T03:01:07;100257.47;;;8.31;59.38
46199;BME280;31928;52.104;10.030;2022-12-07T03:03:36;100257.63;;;8.30;59.99
46199;BME280;31928;52.104;10.030;2022-12-07T03:06:16;100251.47;;;8.29;59.58
46199;BME280;31928;52.104;10.030;2022-12-07T03:08:50;100242.44;;;8.30;59.79
46199;BME280;31928;52.104;10.030;2022-12-07T03:11:27;100246.56;;;8.33;59.27
46199;BME280;31928;52.104;10.030;2022-12-07T03:14:00;100256.63;;;8.31;59.56
46199;BME280;31928;52.104;10.030;2022-12-07T03:16:31;100248.59;;;8.31;59.46
46199;BME280;31928;52.104;10.030;2022-12-07T03:19:00;100246.13;;;8.29;59.12
46199;BME280;31928;52.104;10.030;2022-12-07T03:21:32;100249.81;;;8.28;59.19
46199;BME280;31928;52.104;10.030;2022-12-07T03:24:00;100247.16;;;8.28;59.23
46199;BME280;31928;52.104;10.030;2022-12-07T03:26:31;100240.00;;;8.29;59.32
46199;BME280;31928;52.104;10.030;2022-12-07T03:28:59;100251.69;;;8.28;59.32
46199;BME280;31928;52.104;10.030;2022-12-07T03:31:31;100242.88;;;8.27;58.90
46199;BME280;31928;52.104;10.030;2022-12-07T03:37:06;100236.25;;;8.23;59.14
46199;BME280;31928;52.104;10.030;2022-12-07T03:42:04;100241.81;;;8.22;58.93
46199;BME280;31928;52.104;10.030;2022-12-07T03:44:32;100241.19;;;8.20;58.73
46199;BME280;31928;52.104;10.030;2022-12-07T03:49:27;100237.88;;;8.18;58.76
46199;BME280;31928;52.104;10.030;2022-12-07T03:51:59;100236.22;;;8.17;58.70
46199;BME280;31928;52.104;10.030;2022-12-07T03:54:36;100234.63;;;8.16;58.93
46199;BME280;31928;52.104;10.030;2022-12-07T03:57:06;100237.44;;;8.14;58.90
46199;BME280;31928;52.104;10.030;2022-12-07T03:59:34;100231.31;;;8.14;59.03
46199;BME280;31928;52.104;10.030;2022-12-07T04:02:04;100239.47;;;8.12;58.77
46199;BME280;31928;52.104;10.030;2022-12-07T04:04:31;100237.84;;;8.11;59.09
46199;BME280;31928;52.104;10.030;2022-12-07T04:06:58;100242.34;;;8.11;58.75
46199;BME280;31928;52.104;10.030;2022-12-07T04:09:25;100234.34;;;8.11;58.73
46199;BME280;31928;52.104;10.030;2022-12-07T04:11:51;100235.38;;;8.10;58.68
46199;BME280;31928;52.104;10.030;2022-12-07T04:14:18;100241.53;;;8.10;59.02
46199;BME280;31928;52.104;10.030;2022-12-07T04:16:55;100234.56;;;8.09;58.87
46199;BME280;31928;52.104;10.030;2022-12-07T04:19:28;100240.72;;;8.10;58.72
46199;BME280;31928;52.104;10.030;2022-12-07T04:21:56;100243.59;;;8.08;59.00
46199;BME280;31928;52.104;10.030;2022-12-07T04:24:23;100238.25;;;8.08;58.86
46199;BME280;31928;52.104;10.030;2022-12-07T04:26:50;100239.06;;;8.09;58.86
46199;BME280;31928;52.104;10.030;2022-12-07T04:29:17;100238.25;;;8.08;58.77
46199;BME280;31928;52.104;10.030;2022-12-07T04:31:44;100245.22;;;8.09;58.75
46199;BME280;31928;52.104;10.030;2022-12-07T04:34:11;100240.72;;;8.10;58.85
46199;BME280;31928;52.104;10.030;2022-12-07T04:36:38;100242.56;;;8.09;58.93
46199;BME280;31928;52.104;10.030;2022-12-07T04:39:05;100228.38;;;8.09;58.95
46199;BME280;31928;52.104;10.030;2022-12-07T04:41:32;100234.56;;;8.09;58.99
46199;BME280;31928;52.104;10.030;2022-12-07T04:44:02;100240.72;;;8.10;58.92
46199;BME280;31928;52.104;10.030;2022-12-07T04:46:30;100236.19;;;8.10;59.02
46199;BME280;31928;52.104;10.030;2022-12-07T04:48:57;100234.56;;;8.09;59.14
46199;BME280;31928;52.104;10.030;2022-12-07T04:51:25;100235.38;;;8.10;59.10
46199;BME280;31928;52.104;10.030;2022-12-07T04:53:52;100237.84;;;8.11;58.85
46199;BME280;31928;52.104;10.030;2022-12-07T04:56:19;100238.69;;;8.12;58.86
46199;BME280;31928;52.104;10.030;2022-12-07T04:58:46;100225.97;;;8.14;59.12
46199;BME280;31928;52.104;10.030;2022-12-07T05:01:13;100236.66;;;8.14;58.95
46199;BME280;31928;52.104;10.030;2022-12-07T05:03:40;100239.94;;;8.16;59.17
46199;BME280;31928;52.104;10.030;2022-12-07T05:06:07;100236.22;;;8.17;59.00
46199;BME280;31928;52.104;10.030;2022-12-07T05:08:39;100228.03;;;8.18;59.07
46199;BME280;31928;52.104;10.030;2022-12-07T05:11:05;100229.66;;;8.19;59.48
46199;BME280;31928;52.104;10.030;2022-12-07T05:13:32;100223.53;;;8.25;60.33
46199;BME280;31928;52.104;10.030;2022-12-07T05:15:59;100226.44;;;8.37;60.85
46199;BME280;31928;52.104;10.030;2022-12-07T05:18:25;100230.59;;;8.52;61.47
46199;BME280;31928;52.104;10.030;2022-12-07T05:20:52;100230.19;;;8.68;61.87
46199;BME280;31928;52.104;10.030;2022-12-07T05:23:19;100223.22;;;8.86;61.34
46199;BME280;31928;52.104;10.030;2022-12-07T05:25:46;100222.19;;;9.00;61.00
46199;BME280;31928;52.104;10.030;2022-12-07T05:28:12;100227.50;;;9.13;60.85
46199;BME280;31928;52.104;10.030;2022-12-07T05:30:39;100237.19;;;9.27;60.67
46199;BME280;31928;52.104;10.030;2022-12-07T05:33:05;100221.53;;;9.37;60.79
46199;BME280;31928;52.104;10.030;2022-12-07T05:35:32;100228.94;;;9.48;60.74
46199;BME280;31928;52.104;10.030;2022-12-07T05:37:58;100227.66;;;9.56;60.30
46199;BME280;31928;52.104;10.030;2022-12-07T05:40:25;100226.38;;;9.65;59.32
46199;BME280;31928;52.104;10.030;2022-12-07T05:42:51;100224.34;;;9.67;59.11
46199;BME280;31928;52.104;10.030;2022-12-07T05:45:17;100216.53;;;9.66;58.57
46199;BME280;31928;52.104;10.030;2022-12-07T05:47:44;100216.94;;;9.63;58.04
46199;BME280;31928;52.104;10.030;2022-12-07T05:50:10;100214.09;;;9.58;58.23
46199;BME280;31928;52.104;10.030;2022-12-07T05:52:37;100205.22;;;9.51;57.79
46199;BME280;31928;52.104;10.030;2022-12-07T05:55:03;100211.63;;;9.44;57.70
46199;BME280;31928;52.104;10.030;2022-12-07T05:57:30;100210.84;;;9.37;57.76
46199;BME280;31928;52.104;10.030;2022-12-07T05:59:56;100210.22;;;9.28;57.77
46199;BME280;31928;52.104;10.030;2022-12-07T06:02:23;100214.75;;;9.21;57.89
46199;BME280;31928;52.104;10.030;2022-12-07T06:04:49;100217.44;;;9.15;57.97
46199;BME280;31928;52.104;10.030;2022-12-07T06:07:16;100222.81;;;9.08;57.86
46199;BME280;31928;52.104;10.030;2022-12-07T06:09:42;100219.09;;;9.03;58.20
46199;BME280;31928;52.104;10.030;2022-12-07T06:12:10;100215.38;;;8.97;57.94
46199;BME280;31928;52.104;10.030;2022-12-07T06:14:56;100212.53;;;8.93;57.97
46199;BME280;31928;52.104;10.030;2022-12-07T06:17:22;100222.00;;;8.89;57.99
46199;BME280;31928;52.104;10.030;2022-12-07T06:19:49;100216.22;;;8.85;58.27
46199;BME280;31928;52.104;10.030;2022-12-07T06:22:16;100220.34;;;8.81;58.28
46199;BME280;31928;52.104;10.030;2022-12-07T06:24:43;100227.31;;;8.76;58.16
46199;BME280;31928;52.104;10.030;2022-12-07T06:27:10;100223.81;;;8.75;58.48
46199;BME280;31928;52.104;10.030;2022-12-07T06:29:36;100222.38;;;8.73;58.21
46199;BME280;31928;52.104;10.030;2022-12-07T06:32:03;100225.47;;;8.70;58.15
46199;BME280;31928;52.104;10.030;2022-12-07T06:34:31;100225.69;;;8.68;58.52
46199;BME280;31928;52.104;10.030;2022-12-07T06:36:57;100235.13;;;8.64;58.54
46199;BME280;31928;52.104;10.030;2022-12-07T06:39:24;100232.63;;;8.63;58.65
46199;BME280;31928;52.104;10.030;2022-12-07T06:41:51;100231.84;;;8.62;58.66
46199;BME280;31928;52.104;10.030;2022-12-07T06:44:18;100226.91;;;8.59;58.72
46199;BME280;31928;52.104;10.030;2022-12-07T06:46:44;100230.59;;;8.58;58.71
46199;BME280;31928;52.104;10.030;2022-12-07T06:49:11;100229.78;;;8.58;58.33
46199;BME280;31928;52.104;10.030;2022-12-07T06:51:38;100228.94;;;8.57;58.36
46199;BME280;31928;52.104;10.030;2022-12-07T06:54:08;100237.16;;;8.56;58.55
46199;BME280;31928;52.104;10.030;2022-12-07T06:56:34;100242.50;;;8.56;58.62
46199;BME280;31928;52.104;10.030;2022-12-07T06:59:01;100231.00;;;8.55;58.52
46199;BME280;31928;52.104;10.030;2022-12-07T07:01:28;100229.34;;;8.54;58.74
46199;BME280;31928;52.104;10.030;2022-12-07T07:03:55;100234.69;;;8.54;58.77
46199;BME280;31928;52.104;10.030;2022-12-07T07:06:21;100225.03;;;8.53;58.49
46199;BME280;31928;52.104;10.030;2022-12-07T07:08:48;100233.03;;;8.53;58.74
46199;BME280;31928;52.104;10.030;2022-12-07T07:11:14;100235.72;;;8.53;58.80
46199;BME280;31928;52.104;10.030;2022-12-07T07:13:41;100238.41;;;8.53;58.62
46199;BME280;31928;52.104;10.030;2022-12-07T07:16:07;100230.38;;;8.53;58.46
46199;BME280;31928;52.104;10.030;2022-12-07T07:18:34;100233.84;;;8.54;58.45
46199;BME280;31928;52.104;10.030;2022-12-07T07:21:01;100243.72;;;8.53;58.49
46199;BME280;31928;52.104;10.030;2022-12-07T07:23:27;100237.38;;;8.54;58.70
46199;BME280;31928;52.104;10.030;2022-12-07T07:25:54;100245.38;;;8.54;58.47
46199;BME280;31928;52.104;10.030;2022-12-07T07:28:20;100241.88;;;8.54;58.43
46199;BME280;31928;52.104;10.030;2022-12-07T07:30:47;100238.41;;;8.53;58.80
46199;BME280;31928;52.104;10.030;2022-12-07T07:33:13;100237.59;;;8.53;58.61
46199;BME280;31928;52.104;10.030;2022-12-07T07:35:40;100239.41;;;8.52;58.43
46199;BME280;31928;52.104;10.030;2022-12-07T07:38:06;100233.47;;;8.50;58.49
46199;BME280;31928;52.104;10.030;2022-12-07T07:40:33;100238.16;;;8.48;58.91
46199;BME280;31928;52.104;10.030;2022-12-07T07:42:59;100239.81;;;8.49;58.31
46199;BME280;31928;52.104;10.030;2022-12-07T07:45:26;100238.16;;;8.48;58.62
46199;BME280;31928;52.104;10.030;2022-12-07T07:47:53;100250.94;;;8.46;58.64
46199;BME280;31928;52.104;10.030;2022-12-07T07:50:20;100253.59;;;8.46;58.56
46199;BME280;31928;52.104;10.030;2022-12-07T07:52:46;100252.97;;;8.44;58.36
46199;BME280;31928;52.104;10.030;2022-12-07T07:55:13;100263.03;;;8.42;58.29
46199;BME280;31928;52.104;10.030;2022-12-07T07:57:40;100267.53;;;8.42;58.19
46199;BME280;31928;52.104;10.030;2022-12-07T08:00:08;100262.63;;;8.39;58.53
46199;BME280;31928;52.104;10.030;2022-12-07T08:02:35;100258.28;;;8.38;58.61
46199;BME280;31928;52.104;10.030;2022-12-07T08:05:01;100260.16;;;8.38;58.52
46199;BME280;31928;52.104;10.030;2022-12-07T08:07:28;100266.50;;;8.37;58.32
46199;BME280;31928;52.104;10.030;2022-12-07T08:09:55;100264.03;;;8.35;58.32
46199;BME280;31928;52.104;10.030;2022-12-07T08:12:21;100252.50;;;8.35;58.29
46199;BME280;31928;52.104;10.030;2022-12-07T08:14:47;100260.53;;;8.35;58.31
46199;BME280;31928;52.104;10.030;2022-12-07T08:17:14;100262.38;;;8.34;58.39
46199;BME280;31928;52.104;10.030;2022-12-07T08:19:40;100269.59;;;8.34;58.77
46199;BME280;31928;52.104;10.030;2022-12-07T08:22:07;100267.94;;;8.33;58.77
46199;BME280;31928;52.104;10.030;2022-12-07T08:24:34;100273.06;;;8.34;58.49
46199;BME280;31928;52.104;10.030;2022-12-07T08:27:03;100259.72;;;8.34;58.50
46199;BME280;31928;52.104;10.030;2022-12-07T08:29:29;100263.19;;;8.35;58.71
46199;BME280;31928;52.104;10.030;2022-12-07T08:31:56;100263.03;;;8.36;58.76
46199;BME280;31928;52.104;10.030;2022-12-07T08:34:25;100261.16;;;8.37;58.87
46199;BME280;31928;52.104;10.030;2022-12-07T08:36:52;100256.63;;;8.37;58.83
46199;BME280;31928;52.104;10.030;2022-12-07T08:39:18;100261.78;;;8.38;58.75
46199;BME280;31928;52.104;10.030;2022-12-07T08:41:57;100259.09;;;8.38;58.88
46199;BME280;31928;52.104;10.030;2022-12-07T08:44:23;100259.09;;;8.38;58.89
46199;BME280;31928;52.104;10.030;2022-12-07T08:46:56;100258.09;;;8.39;58.71
46199;BME280;31928;52.104;10.030;2022-12-07T08:49:26;100258.94;;;8.40;58.83
46199;BME280;31928;52.104;10.030;2022-12-07T08:51:54;100267.13;;;8.38;59.12
46199;BME280;31928;52.104;10.030;2022-12-07T08:54:21;100269.19;;;8.43;58.84
46199;BME280;31928;52.104;10.030;2022-12-07T08:56:48;100279.06;;;8.42;58.90
46199;BME280;31928;52.104;10.030;2022-12-07T08:59:23;100265.06;;;8.40;58.80
46199;BME280;31928;52.104;10.030;2022-12-07T09:01:50;100270.00;;;8.43;58.66
46199;BME280;31928;52.104;10.030;2022-12-07T09:04:16;100277.00;;;8.44;58.80
46199;BME280;31928;52.104;10.030;2022-12-07T09:06:43;100274.13;;;8.46;58.68
46199;BME280;31928;52.104;10.030;2022-12-07T09:09:09;100281.31;;;8.45;58.84
46199;BME280;31928;52.104;10.030;2022-12-07T09:11:36;100278.25;;;8.48;58.91
46199;BME280;31928;52.104;10.030;2022-12-07T09:14:02;100273.91;;;8.47;58.74
46199;BME280;31928;52.104;10.030;2022-12-07T09:16:29;100274.97;;;8.46;58.95
46199;BME280;31928;52.104;10.030;2022-12-07T09:18:56;100264.88;;;8.48;59.01
46199;BME280;31928;52.104;10.030;2022-12-07T09:21:22;100277.81;;;8.51;58.92
46199;BME280;31928;52.104;10.030;2022-12-07T09:23:48;100272.31;;;8.53;58.87
46199;BME280;31928;52.104;10.030;2022-12-07T09:26:15;100277.44;;;8.54;58.77
46199;BME280;31928;52.104;10.030;2022-12-07T09:28:41;100279.09;;;8.55;58.90
46199;BME280;31928;52.104;10.030;2022-12-07T09:31:08;100277.03;;;8.57;58.96
46199;BME280;31928;52.104;10.030;2022-12-07T09:33:58;100276.22;;;8.57;59.06
46199;BME280;31928;52.104;10.030;2022-12-07T09:36:25;100276.00;;;8.58;58.77
46199;BME280;31928;52.104;10.030;2022-12-07T09:38:52;100275.00;;;8.59;58.71
46199;BME280;31928;52.104;10.030;2022-12-07T09:41:18;100277.25;;;8.62;58.95
46199;BME280;31928;52.104;10.030;2022-12-07T09:43:46;100279.72;;;8.64;58.94
46199;BME280;31928;52.104;10.030;2022-12-07T09:46:14;100269.88;;;8.64;58.65
46199;BME280;31928;52.104;10.030;2022-12-07T09:48:42;100273.94;;;8.60;58.93
46199;BME280;31928;52.104;10.030;2022-12-07T09:51:22;100268.81;;;8.65;59.00
46199;BME280;31928;52.104;10.030;2022-12-07T09:53:51;100266.78;;;8.67;58.79
46199;BME280;31928;52.104;10.030;2022-12-07T09:56:18;100260.22;;;8.70;58.85
46199;BME280;31928;52.104;10.030;2022-12-07T09:58:45;100265.56;;;8.70;58.49
46199;BME280;31928;52.104;10.030;2022-12-07T10:01:14;100268.03;;;8.71;58.49
46199;BME280;31928;52.104;10.030;2022-12-07T10:06:26;100261.03;;;8.70;58.38
46199;BME280;31928;52.104;10.030;2022-12-07T10:08:52;100253.63;;;8.72;58.61
46199;BME280;31928;52.104;10.030;2022-12-07T10:11:19;100255.47;;;8.72;58.39
46199;BME280;31928;52.104;10.030;2022-12-07T10:13:46;100256.91;;;8.74;58.68
46199;BME280;31928;52.104;10.030;2022-12-07T10:18:51;100261.25;;;8.75;58.68
46199;BME280;31928;52.104;10.030;2022-12-07T10:21:18;100258.56;;;8.75;58.84
46199;BME280;31928;52.104;10.030;2022-12-07T10:24:00;100259.00;;;8.79;58.64
46199;BME280;31928;52.104;10.030;2022-12-07T10:26:34;100259.38;;;8.82;58.77
46199;BME280;31928;52.104;10.030;2022-12-07T10:31:47;100260.22;;;8.89;58.88
46199;BME280;31928;52.104;10.030;2022-12-07T10:36:53;100245.84;;;8.97;58.86
46199;BME280;31928;52.104;10.030;2022-12-07T10:39:21;100251.59;;;9.00;58.97
46199;BME280;31928;52.104;10.030;2022-12-07T10:41:54;100247.47;;;9.04;58.80
46199;BME280;31928;52.104;10.030;2022-12-07T10:44:25;100249.75;;;9.07;58.76
46199;BME280;31928;52.104;10.030;2022-12-07T10:46:53;100251.19;;;9.09;58.73
46199;BME280;31928;52.104;10.030;2022-12-07T10:49:28;100252.41;;;9.13;58.34
46199;BME280;31928;52.104;10.030;2022-12-07T10:52:24;100252.00;;;9.16;58.62
46199;BME280;31928;52.104;10.030;2022-12-07T11:02:45;100245.22;;;9.20;58.48
46199;BME280;31928;52.104;10.030;2022-12-07T11:05:17;100245.00;;;9.22;58.12
46199;BME280;31928;52.104;10.030;2022-12-07T11:07:58;100239.84;;;9.20;57.82
46199;BME280;31928;52.104;10.030;2022-12-07T11:10:27;100239.66;;;9.22;58.06
46199;BME280;31928;52.104;10.030;2022-12-07T11:15:28;100240.06;;;9.19;57.75
46199;BME280;31928;52.104;10.030;2022-12-07T11:38:54;100226.06;;;9.04;58.09
46199;BME280;31928;52.104;10.030;2022-12-07T11:41:25;100219.91;;;9.10;58.21
46199;BME280;31928;52.104;10.030;2022-12-07T11:46:22;100213.94;;;9.21;58.21
46199;BME280;31928;52.104;10.030;2022-12-07T11:48:53;100208.19;;;9.24;58.18
46199;BME280;31928;52.104;10.030;2022-12-07T11:51:21;100202.81;;;9.30;58.08
46199;BME280;31928;52.104;10.030;2022-12-07T11:53:54;100209.19;;;9.36;57.86
46199;BME280;31928;52.104;10.030;2022-12-07T11:56:22;100201.56;;;9.39;57.88
46199;BME280;31928;52.104;10.030;2022-12-07T12:06:57;100184.06;;;9.43;57.65
46199;BME280;31928;52.104;10.030;2022-12-07T12:09:52;100185.94;;;9.43;56.92
46199;BME280;31928;52.104;10.030;2022-12-07T12:22:53;100182.19;;;9.50;57.56
46199;BME280;31928;52.104;10.030;2022-12-07T12:25:26;100184.84;;;9.56;57.63
46199;BME280;31928;52.104;10.030;2022-12-07T12:27:55;100172.69;;;9.60;57.69
46199;BME280;31928;52.104;10.030;2022-12-07T12:30:30;100173.50;;;9.67;57.56
46199;BME280;31928;52.104;10.030;2022-12-07T12:33:02;100183.94;;;9.75;57.90
46199;BME280;31928;52.104;10.030;2022-12-07T12:35:31;100182.69;;;9.84;58.05
46199;BME280;31928;52.104;10.030;2022-12-07T12:40:43;100171.53;;;10.00;57.35
46199;BME280;31928;52.104;10.030;2022-12-07T12:46:35;100165.91;;;10.08;57.17
46199;BME280;31928;52.104;10.030;2022-12-07T12:48:48;100165.06;;;10.08;57.00
46199;BME280;31928;52.104;10.030;2022-12-07T12:51:57;100160.34;;;10.10;56.96
46199;BME280;31928;52.104;10.030;2022-12-07T12:54:05;100163.25;;;10.08;56.49
46199;BME280;31928;52.104;10.030;2022-12-07T12:59:22;100157.69;;;10.03;55.86
46199;BME280;31928;52.104;10.030;2022-12-07T13:01:50;100156.69;;;10.04;56.03
46199;BME280;31928;52.104;10.030;2022-12-07T13:04:24;100150.91;;;10.01;56.06
46199;BME280;31928;52.104;10.030;2022-12-07T13:06:51;100158.16;;;10.00;56.50
46199;BME280;31928;52.104;10.030;2022-12-07T13:09:20;100146.00;;;9.98;56.00
46199;BME280;31928;52.104;10.030;2022-12-07T13:11:48;100143.91;;;9.93;55.99
46199;BME280;31928;52.104;10.030;2022-12-07T13:17:01;100148.88;;;9.90;56.25
46199;BME280;31928;52.104;10.030;2022-12-07T13:24:58;100134.06;;;9.87;56.06
46199;BME280;31928;52.104;10.030;2022-12-07T13:27:28;100142.50;;;9.84;55.86
46199;BME280;31928;52.104;10.030;2022-12-07T13:29:56;100151.97;;;9.87;56.19
46199;BME280;31928;52.104;10.030;2022-12-07T13:32:24;100144.16;;;9.85;56.07
46199;BME280;31928;52.104;10.030;2022-12-07T13:34:50;100144.16;;;9.85;56.53
46199;BME280;31928;52.104;10.030;2022-12-07T13:40:29;100134.94;;;9.81;56.08
46199;BME280;31928;52.104;10.030;2022-12-07T13:42:31;100154.69;;;9.80;56.44
46199;BME280;31928;52.104;10.030;2022-12-07T13:44:59;100138.41;;;9.82;56.33
46199;BME280;31928;52.104;10.030;2022-12-07T13:49:54;100140.28;;;9.81;56.50
46199;BME280;31928;52.104;10.030;2022-12-07T13:52:26;100141.31;;;9.80;56.20
46199;BME280;31928;52.104;10.030;2022-12-07T13:55:11;100133.50;;;9.79;56.41
46199;BME280;31928;52.104;10.030;2022-12-07T13:57:39;100134.53;;;9.78;55.97
46199;BME280;31928;52.104;10.030;2022-12-07T14:00:13;100133.72;;;9.77;56.37
46199;BME280;31928;52.104;10.030;2022-12-07T14:03:01;100130.41;;;9.75;56.23
46199;BME280;31928;52.104;10.030;2022-12-07T14:05:28;100135.75;;;9.75;56.53
46199;BME280;31928;52.104;10.030;2022-12-07T14:08:03;100127.16;;;9.73;56.11
46199;BME280;31928;52.104;10.030;2022-12-07T14:12:57;100120.16;;;9.72;56.43
46199;BME280;31928;52.104;10.030;2022-12-07T14:15:26;100127.53;;;9.70;56.33
46199;BME280;31928;52.104;10.030;2022-12-07T14:17:53;100122.19;;;9.70;56.04
46199;BME280;31928;52.104;10.030;2022-12-07T14:20:31;100130.22;;;9.70;56.13
46199;BME280;31928;52.104;10.030;2022-12-07T14:22:57;100128.78;;;9.68;56.24
46199;BME280;31928;52.104;10.030;2022-12-07T14:25:27;100126.34;;;9.66;56.38
46199;BME280;31928;52.104;10.030;2022-12-07T14:27:58;100125.53;;;9.66;56.22
46199;BME280;31928;52.104;10.030;2022-12-07T14:30:26;100123.06;;;9.64;56.21
46199;BME280;31928;52.104;10.030;2022-12-07T14:32:55;100126.78;;;9.63;56.36
46199;BME280;31928;52.104;10.030;2022-12-07T14:35:23;100131.50;;;9.61;56.44
46199;BME280;31928;52.104;10.030;2022-12-07T14:37:50;100127.00;;;9.56;55.78
46199;BME280;31928;52.104;10.030;2022-12-07T14:40:20;100128.63;;;9.56;56.16
46199;BME280;31928;52.104;10.030;2022-12-07T14:42:49;100123.94;;;9.52;55.70
46199;BME280;31928;52.104;10.030;2022-12-07T14:45:17;100120.44;;;9.52;55.91
46199;BME280;31928;52.104;10.030;2022-12-07T14:47:44;100124.38;;;9.49;55.83
46199;BME280;31928;52.104;10.030;2022-12-07T14:50:32;100121.06;;;9.47;56.08